Time;durP1;ratioP1;P1;durP2;ratioP2;P2;SDS_P1;SDS_P2;PMS_P1;PMS_P2;Temp;Humidity;BMP_temperature;BMP_pressure;BME280_temperature;BME280_humidity;BME280_pressure;Samples;Min_cycle;Max_cycle;Signal;HPM_P1;HPM_P2
2021/12/26 00:01:11;;;;;;;1.10;1.10;;;4.70;99.90;;;;;;5093780;28;20797;-74
2021/12/26 00:03:40;;;;;;;1.35;1.35;;;4.70;99.90;;;;;;5098009;28;20218;-74
2021/12/26 00:06:11;;;;;;;1.27;1.20;;;4.70;99.90;;;;;;5097773;28;20230;-74
2021/12/26 00:08:40;;;;;;;1.23;1.23;;;4.70;99.90;;;;;;5097776;28;20184;-73
2021/12/26 00:11:07;;;;;;;1.10;1.10;;;4.70;99.90;;;;;;5097632;28;20245;-73
2021/12/26 00:13:35;;;;;;;1.33;1.33;;;4.70;99.90;;;;;;5097545;28;20305;-73
2021/12/26 00:16:04;;;;;;;1.48;1.38;;;4.70;99.90;;;;;;5096956;28;20757;-72
2021/12/26 00:18:32;;;;;;;0.88;0.88;;;4.80;99.90;;;;;;5096972;28;20271;-72
2021/12/26 00:21:00;;;;;;;1.23;1.23;;;4.70;99.90;;;;;;5096805;28;20306;-72
2021/12/26 00:23:27;;;;;;;1.20;1.20;;;4.70;99.90;;;;;;5096916;28;20291;-73
2021/12/26 00:25:55;;;;;;;1.23;1.23;;;4.70;99.90;;;;;;5097125;28;20290;-73
2021/12/26 00:28:22;;;;;;;1.20;1.20;;;4.70;99.90;;;;;;5096833;28;20203;-73
2021/12/26 00:30:50;;;;;;;1.08;1.08;;;4.70;99.90;;;;;;5097002;28;20246;-73
2021/12/26 00:33:16;;;;;;;1.10;1.05;;;4.70;99.90;;;;;;5096604;28;20258;-73
2021/12/26 00:35:43;;;;;;;1.20;1.20;;;4.70;99.90;;;;;;5097253;28;20199;-73
2021/12/26 00:38:12;;;;;;;1.20;1.20;;;4.70;99.90;;;;;;5096866;28;20290;-73
2021/12/26 00:40:40;;;;;;;1.45;1.42;;;4.70;99.90;;;;;;5096750;28;20207;-72
2021/12/26 00:43:07;;;;;;;0.90;0.90;;;4.70;99.90;;;;;;5096572;28;20274;-73
2021/12/26 00:45:34;;;;;;;1.25;1.25;;;4.70;99.90;;;;;;5096909;28;20206;-73
2021/12/26 00:48:01;;;;;;;1.05;1.05;;;4.70;99.90;;;;;;5096454;28;20290;-73
2021/12/26 00:50:32;;;;;;;1.02;1.02;;;4.70;99.90;;;;;;5096440;28;20294;-73
2021/12/26 00:52:59;;;;;;;1.20;1.20;;;4.70;99.90;;;;;;5096527;28;20204;-73
2021/12/26 00:55:28;;;;;;;1.20;1.20;;;4.70;99.90;;;;;;5096267;28;20269;-73
2021/12/26 00:57:55;;;;;;;1.10;1.10;;;4.70;99.90;;;;;;5096257;28;20205;-73
2021/12/26 01:00:25;;;;;;;1.00;1.00;;;4.70;99.90;;;;;;5096679;28;20294;-73
2021/12/26 01:02:53;;;;;;;1.05;1.05;;;4.70;99.90;;;;;;5096254;28;20789;-73
2021/12/26 01:05:21;;;;;;;1.10;1.10;;;4.70;99.90;;;;;;5096084;28;20621;-73
2021/12/26 01:07:56;;;;;;;1.33;1.33;;;4.70;99.90;;;;;;5096252;28;20732;-73
2021/12/26 01:10:24;;;;;;;1.13;1.10;;;4.70;99.90;;;;;;5097219;28;20278;-73
2021/12/26 01:12:54;;;;;;;1.05;1.05;;;4.70;99.90;;;;;;5095649;28;20219;-73
2021/12/26 01:15:23;;;;;;;1.35;1.30;;;4.70;99.90;;;;;;5095838;28;20727;-73
2021/12/26 01:17:55;;;;;;;1.40;1.40;;;4.70;99.90;;;;;;5096279;28;20195;-73
2021/12/26 01:20:40;;;;;;;1.00;1.00;;;4.70;99.90;;;;;;5096343;28;20210;-73
2021/12/26 01:23:08;;;;;;;0.93;0.93;;;4.70;99.90;;;;;;5096219;28;20179;-73
2021/12/26 01:25:36;;;;;;;1.08;1.08;;;4.70;99.90;;;;;;5096073;28;20317;-73
2021/12/26 01:28:05;;;;;;;1.08;1.08;;;4.70;99.90;;;;;;5095833;28;20204;-73
2021/12/26 01:30:32;;;;;;;0.95;0.95;;;4.70;99.90;;;;;;5095851;28;20230;-72
2021/12/26 01:32:59;;;;;;;0.90;0.90;;;4.70;99.90;;;;;;5095627;28;20300;-74
2021/12/26 01:35:26;;;;;;;0.90;0.90;;;4.70;99.90;;;;;;5095639;28;20203;-74
2021/12/26 01:37:53;;;;;;;0.95;0.95;;;4.60;99.90;;;;;;5095434;28;20618;-74
2021/12/26 01:40:20;;;;;;;0.80;0.80;;;4.70;99.90;;;;;;5095281;28;20201;-74
2021/12/26 01:42:47;;;;;;;0.98;0.98;;;4.70;99.90;;;;;;5095025;28;20671;-75
2021/12/26 01:45:15;;;;;;;1.00;1.00;;;4.60;99.90;;;;;;5095447;28;20282;-75
2021/12/26 01:47:45;;;;;;;1.10;1.10;;;4.70;99.90;;;;;;5095479;28;20290;-74
2021/12/26 01:50:12;;;;;;;1.00;1.00;;;4.60;99.90;;;;;;5095177;28;20566;-74
2021/12/26 01:52:40;;;;;;;0.80;0.80;;;4.70;99.90;;;;;;5095278;28;20310;-74
2021/12/26 01:55:24;;;;;;;0.90;0.90;;;4.60;99.90;;;;;;5094890;28;20222;-74
2021/12/26 01:57:53;;;;;;;0.90;0.90;;;4.60;99.90;;;;;;5095363;28;20191;-74
2021/12/26 02:00:22;;;;;;;0.80;0.80;;;4.60;99.90;;;;;;5095190;28;20286;-74
2021/12/26 06:42:31;;;;;;;0.60;0.60;;;4.60;99.90;;;;;;5238598;22;20261;-67
2021/12/26 06:44:58;;;;;;;0.68;0.68;;;4.60;99.90;;;;;;5094344;28;20201;-67
2021/12/26 06:47:25;;;;;;;0.60;0.60;;;4.60;99.90;;;;;;5094345;28;20231;-67
2021/12/26 06:49:52;;;;;;;0.70;0.70;;;4.60;99.90;;;;;;5094315;28;20204;-67
2021/12/26 06:52:20;;;;;;;0.80;0.80;;;4.60;99.90;;;;;;5094157;28;20326;-67
2021/12/26 06:54:47;;;;;;;0.73;0.73;;;4.60;99.90;;;;;;5094646;28;20215;-67
2021/12/26 06:57:14;;;;;;;0.63;0.63;;;4.60;99.90;;;;;;5094169;28;20234;-67
2021/12/26 06:59:42;;;;;;;0.88;0.88;;;4.60;99.90;;;;;;5094158;28;20360;-66
2021/12/26 07:02:10;;;;;;;0.70;0.70;;;4.60;99.90;;;;;;5094008;28;20254;-66
2021/12/26 07:04:36;;;;;;;0.63;0.63;;;4.60;99.90;;;;;;5094013;28;20210;-66
2021/12/26 07:07:03;;;;;;;0.70;0.70;;;4.60;99.90;;;;;;5094000;28;20621;-67
2021/12/26 07:09:30;;;;;;;0.60;0.60;;;4.60;99.90;;;;;;5093674;28;20684;-67
2021/12/26 07:11:57;;;;;;;0.70;0.70;;;4.60;99.90;;;;;;5093008;28;20322;-67
2021/12/26 07:14:24;;;;;;;0.73;0.73;;;4.60;99.90;;;;;;5093610;28;20221;-67
2021/12/26 07:16:52;;;;;;;0.60;0.60;;;4.60;99.90;;;;;;5093710;28;20603;-66
2021/12/26 07:19:19;;;;;;;0.65;0.65;;;4.60;99.90;;;;;;5093754;28;20222;-67
2021/12/26 07:21:46;;;;;;;0.65;0.65;;;4.60;99.90;;;;;;5093794;28;20245;-67
2021/12/26 07:24:13;;;;;;;0.63;0.63;;;4.60;99.90;;;;;;5093777;28;20294;-67
2021/12/26 07:26:40;;;;;;;0.75;0.75;;;4.60;99.90;;;;;;5093503;28;20644;-67
2021/12/26 07:29:07;;;;;;;0.80;0.80;;;4.60;99.90;;;;;;5093538;28;20634;-67
2021/12/26 07:31:34;;;;;;;0.70;0.70;;;4.70;99.90;;;;;;5093372;28;20306;-67
2021/12/26 07:34:03;;;;;;;0.82;0.82;;;4.70;99.90;;;;;;5093607;28;20219;-67
2021/12/26 07:36:30;;;;;;;0.80;0.80;;;4.70;99.90;;;;;;5093351;28;20688;-66
2021/12/26 07:38:56;;;;;;;0.75;0.75;;;4.70;99.90;;;;;;5093377;28;20688;-66
2021/12/26 07:41:23;;;;;;;1.00;1.00;;;4.70;99.90;;;;;;5093496;28;20309;-67
2021/12/26 07:43:51;;;;;;;0.70;0.70;;;4.70;99.90;;;;;;5093268;28;20229;-67
2021/12/26 07:46:18;;;;;;;0.82;0.82;;;4.70;99.90;;;;;;5093536;28;20199;-67
2021/12/26 07:48:46;;;;;;;0.70;0.70;;;4.70;99.90;;;;;;5094495;28;20204;-67
2021/12/26 07:51:14;;;;;;;0.80;0.80;;;4.70;99.90;;;;;;5097813;28;20227;-66
2021/12/26 07:53:42;;;;;;;0.70;0.70;;;4.70;99.90;;;;;;5099195;28;20280;-66
2021/12/26 07:56:09;;;;;;;0.80;0.80;;;4.70;99.90;;;;;;5097838;28;20201;-66
2021/12/26 07:58:36;;;;;;;0.75;0.75;;;4.70;99.90;;;;;;5097647;28;20249;-67
2021/12/26 08:01:03;;;;;;;1.00;1.00;;;4.80;99.90;;;;;;5097476;28;20582;-65
2021/12/26 08:03:30;;;;;;;0.70;0.70;;;4.80;99.90;;;;;;5096852;28;20195;-65
2021/12/26 08:05:58;;;;;;;0.80;0.80;;;4.80;99.90;;;;;;5097135;28;20230;-66
2021/12/26 08:08:26;;;;;;;0.70;0.70;;;4.80;99.90;;;;;;5096960;28;20196;-67
2021/12/26 08:10:54;;;;;;;0.70;0.70;;;4.80;99.90;;;;;;5097948;28;20635;-67
2021/12/26 08:13:21;;;;;;;0.60;0.60;;;4.80;99.90;;;;;;5096331;28;20252;-66
2021/12/26 08:15:48;;;;;;;0.60;0.60;;;4.90;99.90;;;;;;5096541;28;20226;-66
2021/12/26 08:18:15;;;;;;;0.60;0.60;;;4.90;99.90;;;;;;5097181;28;20207;-66
2021/12/26 08:20:42;;;;;;;0.70;0.70;;;4.90;99.90;;;;;;5096513;28;20227;-66
2021/12/26 08:23:11;;;;;;;1.08;1.08;;;4.90;99.90;;;;;;5098440;28;20618;-67
2021/12/26 08:25:40;;;;;;;0.70;0.70;;;4.90;99.90;;;;;;5098908;28;20213;-67
2021/12/26 08:28:07;;;;;;;0.82;0.82;;;4.90;99.90;;;;;;5098172;28;20222;-67
2021/12/26 08:30:34;;;;;;;0.80;0.80;;;5.00;99.90;;;;;;5098616;28;20294;-67
2021/12/26 08:33:05;;;;;;;0.80;0.80;;;4.90;99.90;;;;;;5097331;28;20199;-67
2021/12/26 08:35:32;;;;;;;0.95;0.95;;;5.00;99.90;;;;;;5096496;28;20561;-67
2021/12/26 08:37:59;;;;;;;0.88;0.88;;;5.00;99.90;;;;;;5096579;28;20640;-67
2021/12/26 08:40:26;;;;;;;0.70;0.70;;;5.10;99.90;;;;;;5096468;28;20206;-67
2021/12/26 08:42:55;;;;;;;0.93;0.93;;;5.10;99.90;;;;;;5096513;28;20293;-67
2021/12/26 08:45:22;;;;;;;0.90;0.90;;;5.10;99.90;;;;;;5096873;28;20286;-67
2021/12/26 08:47:49;;;;;;;0.80;0.80;;;5.20;99.90;;;;;;5096684;28;20195;-67
2021/12/26 08:50:17;;;;;;;1.30;1.20;;;5.30;99.90;;;;;;5096351;28;20693;-67
2021/12/26 08:52:44;;;;;;;1.27;1.27;;;5.30;99.90;;;;;;5096415;28;20767;-67
2021/12/26 08:55:11;;;;;;;1.40;1.40;;;5.40;99.90;;;;;;5096363;28;20215;-67
2021/12/26 08:57:38;;;;;;;1.50;1.40;;;5.50;99.90;;;;;;5096424;28;20286;-68
2021/12/26 09:00:09;;;;;;;1.33;1.23;;;5.60;99.90;;;;;;5096445;28;20294;-68
2021/12/26 09:02:36;;;;;;;1.70;1.50;;;5.70;99.90;;;;;;5096271;28;20306;-68
2021/12/26 09:05:03;;;;;;;2.10;1.90;;;5.80;99.90;;;;;;5096367;28;20267;-68
2021/12/26 09:07:31;;;;;;;2.00;2.00;;;5.90;99.90;;;;;;5096471;28;20285;-68
2021/12/26 09:09:58;;;;;;;2.45;2.35;;;6.00;99.90;;;;;;5096320;28;20199;-67
2021/12/26 09:12:25;;;;;;;2.00;1.85;;;6.10;99.90;;;;;;5097025;28;20305;-67
2021/12/26 09:14:52;;;;;;;1.85;1.75;;;6.10;99.90;;;;;;5096829;28;20660;-67
2021/12/26 09:17:20;;;;;;;2.17;2.08;;;6.20;99.90;;;;;;5097337;28;20294;-68
2021/12/26 09:19:47;;;;;;;2.47;2.30;;;6.20;99.90;;;;;;5096404;28;20295;-68
2021/12/26 09:22:17;;;;;;;3.10;2.90;;;6.20;99.90;;;;;;5096249;28;20318;-69
2021/12/26 09:24:45;;;;;;;2.30;2.17;;;6.20;99.90;;;;;;5098523;28;20191;-68
2021/12/26 09:27:13;;;;;;;3.20;2.60;;;6.20;99.90;;;;;;5096837;28;20212;-68
2021/12/26 09:29:40;;;;;;;2.63;2.45;;;6.20;99.90;;;;;;5097256;28;20600;-68
2021/12/26 09:32:08;;;;;;;3.38;3.08;;;6.10;99.90;;;;;;5097439;28;20305;-68
2021/12/26 09:34:37;;;;;;;3.10;2.90;;;6.10;99.90;;;;;;5096343;28;20637;-68
2021/12/26 09:37:05;;;;;;;2.90;2.70;;;6.10;99.90;;;;;;5097137;28;20298;-67
2021/12/26 09:39:32;;;;;;;3.33;2.95;;;6.00;99.90;;;;;;5096790;28;20274;-66
2021/12/26 09:41:59;;;;;;;3.33;3.13;;;6.00;99.90;;;;;;5095574;28;20579;-66
2021/12/26 09:44:26;;;;;;;2.47;2.33;;;6.00;99.90;;;;;;5095644;28;20194;-66
2021/12/26 09:46:53;;;;;;;1.90;1.90;;;6.20;99.90;;;;;;5095619;28;20294;-67
2021/12/26 09:49:21;;;;;;;2.03;1.92;;;6.10;99.90;;;;;;5095220;28;20211;-66
2021/12/26 09:51:52;;;;;;;2.08;1.98;;;6.10;99.90;;;;;;5095220;28;20223;-68
2021/12/26 09:54:19;;;;;;;1.65;1.65;;;6.20;99.90;;;;;;5095454;28;20522;-68
2021/12/26 09:56:46;;;;;;;2.00;2.00;;;6.20;99.90;;;;;;5096317;28;20729;-68
2021/12/26 09:59:17;;;;;;;1.50;1.50;;;6.20;99.90;;;;;;5095455;28;20290;-67
2021/12/26 10:01:45;;;;;;;1.50;1.50;;;6.10;99.90;;;;;;5095295;28;20306;-69
2021/12/26 10:04:20;;;;;;;1.70;1.60;;;6.10;99.90;;;;;;5095269;28;20195;-68
2021/12/26 10:06:51;;;;;;;1.30;1.30;;;6.20;99.90;;;;;;5095172;28;20205;-68
2021/12/26 10:09:20;;;;;;;1.90;1.80;;;6.30;99.90;;;;;;5095457;28;20286;-69
2021/12/26 10:11:49;;;;;;;1.38;1.27;;;6.30;99.90;;;;;;5094804;28;20227;-69
2021/12/26 10:14:18;;;;;;;1.40;1.40;;;6.40;99.90;;;;;;5094899;28;20282;-69
2021/12/26 10:16:48;;;;;;;1.85;1.75;;;6.40;99.90;;;;;;5094837;28;20233;-69
2021/12/26 10:19:15;;;;;;;1.90;1.80;;;6.40;99.90;;;;;;5094541;28;20635;-69
2021/12/26 10:21:44;;;;;;;2.35;1.63;;;6.50;99.90;;;;;;5094678;28;20310;-69
2021/12/26 10:24:18;;;;;;;1.40;1.40;;;6.60;99.90;;;;;;5094771;28;20631;-69
2021/12/26 10:26:48;;;;;;;1.88;1.88;;;6.60;99.90;;;;;;5094748;28;20190;-69
2021/12/26 10:29:25;;;;;;;1.75;1.65;;;6.70;99.90;;;;;;5094736;28;20202;-69
2021/12/26 10:32:01;;;;;;;2.00;1.90;;;6.80;99.90;;;;;;5094520;28;20261;-68
2021/12/26 10:34:32;;;;;;;2.25;2.15;;;6.80;99.90;;;;;;5094797;28;20195;-68
2021/12/26 10:37:00;;;;;;;2.15;2.05;;;6.90;99.90;;;;;;5094662;28;20267;-68
2021/12/26 10:39:31;;;;;;;2.13;2.03;;;6.90;99.90;;;;;;5094606;28;20195;-69
2021/12/26 10:42:00;;;;;;;1.67;1.67;;;7.00;99.90;;;;;;5094433;28;20326;-70
2021/12/26 10:44:34;;;;;;;2.00;1.90;;;7.00;99.90;;;;;;5094299;28;20279;-69
2021/12/26 10:47:06;;;;;;;1.73;1.63;;;7.10;99.90;;;;;;5093999;28;20184;-69
2021/12/26 10:49:40;;;;;;;1.80;1.70;;;7.10;99.90;;;;;;5094420;28;20194;-69
2021/12/26 10:52:27;;;;;;;1.40;1.40;;;7.20;99.90;;;;;;5093891;28;20705;-69
2021/12/26 10:54:59;;;;;;;1.60;1.50;;;7.20;99.90;;;;;;5094701;28;20218;-68
2021/12/26 10:57:30;;;;;;;2.10;2.00;;;7.30;99.90;;;;;;5094330;28;20275;-68
2021/12/26 11:00:14;;;;;;;1.88;1.77;;;7.30;99.90;;;;;;5094144;28;20214;-69
2021/12/26 11:02:43;;;;;;;1.27;1.27;;;7.20;99.90;;;;;;5094022;28;20314;-69
2021/12/26 11:05:13;;;;;;;1.08;1.08;;;7.30;99.90;;;;;;5093979;28;20195;-70
2021/12/26 11:07:42;;;;;;;1.17;1.17;;;7.30;99.90;;;;;;5094030;28;20265;-70
2021/12/26 11:10:14;;;;;;;1.13;1.13;;;7.40;99.90;;;;;;5093532;28;20608;-70
2021/12/26 11:12:45;;;;;;;1.20;1.20;;;7.40;99.90;;;;;;5093842;28;20302;-69
2021/12/26 11:15:14;;;;;;;1.40;1.40;;;7.40;99.90;;;;;;5093915;28;20239;-69
2021/12/26 11:17:44;;;;;;;1.73;1.63;;;7.40;99.90;;;;;;5093831;28;20203;-69
2021/12/26 11:20:26;;;;;;;1.58;1.52;;;7.40;99.90;;;;;;5093554;28;20631;-70
2021/12/26 11:22:54;;;;;;;1.13;1.13;;;7.40;99.90;;;;;;5093817;28;20275;-69
2021/12/26 11:25:23;;;;;;;1.70;1.60;;;7.40;99.90;;;;;;5093466;28;20677;-69
2021/12/26 11:27:51;;;;;;;1.30;1.30;;;7.40;99.90;;;;;;5093786;28;20198;-70
2021/12/26 11:30:18;;;;;;;1.75;1.65;;;7.40;99.90;;;;;;5093400;28;20199;-68
2021/12/26 11:32:45;;;;;;;1.90;1.83;;;7.40;99.90;;;;;;5093644;28;20235;-68
2021/12/26 11:35:13;;;;;;;1.98;1.88;;;7.30;99.90;;;;;;5093576;28;20314;-68
2021/12/26 11:37:41;;;;;;;2.20;2.10;;;7.20;99.90;;;;;;5093300;28;20220;-69
2021/12/26 11:40:12;;;;;;;1.85;1.85;;;7.10;99.90;;;;;;5094165;28;20290;-68
2021/12/26 11:43:00;;;;;;;2.00;2.00;;;7.00;99.90;;;;;;5093435;28;20745;-69
2021/12/26 11:45:35;;;;;;;1.85;1.85;;;7.00;99.90;;;;;;5093508;28;20180;-69
2021/12/26 11:48:38;;;;;;;2.50;2.42;;;7.00;99.90;;;;;;5093633;28;20265;-69
2021/12/26 11:51:22;;;;;;;2.30;2.20;;;6.90;99.90;;;;;;5093168;28;20615;-69
2021/12/26 11:54:25;;;;;;;2.30;2.20;;;6.90;99.90;;;;;;5093531;28;20187;-69
2021/12/26 11:57:14;;;;;;;2.00;2.00;;;6.90;99.90;;;;;;5018401;28;20218;-68
2021/12/26 12:00:01;;;;;;;2.40;2.30;;;7.00;99.90;;;;;;5097266;28;20266;-68
2021/12/26 12:02:36;;;;;;;2.47;2.38;;;7.00;99.90;;;;;;5097130;28;20694;-69
2021/12/26 12:05:09;;;;;;;2.50;2.40;;;7.00;99.90;;;;;;5097150;28;20294;-70
2021/12/26 12:07:49;;;;;;;2.00;1.90;;;6.90;99.90;;;;;;5097389;28;20194;-70
2021/12/26 12:10:34;;;;;;;2.13;2.10;;;7.00;99.90;;;;;;5097395;28;20233;-70
2021/12/26 12:13:01;;;;;;;2.45;2.35;;;7.00;99.90;;;;;;5097338;28;20290;-70
2021/12/26 12:15:51;;;;;;;2.13;2.03;;;7.00;99.90;;;;;;5097222;28;20306;-70
2021/12/26 12:18:21;;;;;;;2.00;2.00;;;7.10;99.90;;;;;;5096942;28;20194;-70
2021/12/26 12:20:49;;;;;;;2.25;2.15;;;7.20;99.90;;;;;;5097170;28;20253;-70
2021/12/26 12:23:20;;;;;;;1.95;1.95;;;7.20;99.90;;;;;;5097173;28;20207;-69
2021/12/26 12:25:53;;;;;;;2.03;1.92;;;7.20;99.90;;;;;;5097321;28;20277;-69
2021/12/26 12:28:28;;;;;;;2.20;2.10;;;7.20;99.90;;;;;;5097393;28;20643;-68
2021/12/26 12:31:16;;;;;;;2.70;2.60;;;7.10;99.90;;;;;;5097922;28;20219;-68
2021/12/26 12:33:44;;;;;;;2.47;2.38;;;7.10;99.90;;;;;;5098379;28;20180;-69
2021/12/26 12:36:15;;;;;;;2.75;2.65;;;7.00;99.90;;;;;;5097602;28;20302;-69
2021/12/26 12:38:45;;;;;;;2.45;2.35;;;7.00;99.90;;;;;;5097101;28;20276;-69
2021/12/26 12:41:38;;;;;;;2.20;2.10;;;7.00;99.90;;;;;;5096760;28;20256;-71
2021/12/26 12:44:25;;;;;;;2.67;2.58;;;7.00;99.90;;;;;;5096714;28;20279;-71
2021/12/26 12:47:14;;;;;;;3.22;3.03;;;7.00;99.90;;;;;;5097279;28;20262;-68
2021/12/26 12:49:47;;;;;;;2.75;2.65;;;7.00;99.90;;;;;;5097532;28;20196;-68
2021/12/26 12:52:39;;;;;;;2.80;2.60;;;7.00;99.90;;;;;;5097861;28;20314;-69
2021/12/26 12:55:08;;;;;;;2.58;2.47;;;6.90;99.90;;;;;;5096699;28;20295;-69
2021/12/26 12:57:37;;;;;;;2.72;2.53;;;6.90;99.90;;;;;;5096185;28;20291;-69
2021/12/26 13:00:06;;;;;;;2.50;2.40;;;6.90;99.90;;;;;;5096244;28;20238;-68
2021/12/26 13:02:37;;;;;;;2.13;2.13;;;6.90;99.90;;;;;;5096148;28;20654;-69
2021/12/26 13:05:07;;;;;;;2.53;2.42;;;6.90;99.90;;;;;;5096607;28;20714;-67
2021/12/26 13:07:34;;;;;;;2.80;2.65;;;6.90;99.90;;;;;;5096674;28;20570;-70
2021/12/26 13:10:09;;;;;;;3.28;3.13;;;6.90;99.90;;;;;;5094942;28;20601;-70
2021/12/26 13:12:36;;;;;;;2.78;2.67;;;6.80;99.90;;;;;;5095927;28;20268;-68
2021/12/26 13:15:07;;;;;;;3.08;2.95;;;6.80;99.90;;;;;;5096555;28;20242;-69
2021/12/26 13:17:37;;;;;;;2.85;2.70;;;6.80;99.90;;;;;;5097689;28;20365;-69
2021/12/26 13:20:06;;;;;;;2.30;2.20;;;6.80;99.90;;;;;;5098556;28;20179;-69
2021/12/26 13:22:42;;;;;;;2.60;2.50;;;6.80;99.90;;;;;;5097594;28;20227;-68
2021/12/26 13:25:11;;;;;;;2.70;2.50;;;6.70;99.90;;;;;;5097138;28;20237;-68
2021/12/26 13:27:38;;;;;;;2.30;2.20;;;6.80;99.90;;;;;;5098732;28;20283;-69
2021/12/26 13:30:07;;;;;;;2.67;2.58;;;6.80;99.90;;;;;;5097404;28;20749;-68
2021/12/26 13:32:37;;;;;;;2.70;2.60;;;6.70;99.90;;;;;;5098001;28;20282;-68
2021/12/26 13:35:05;;;;;;;2.50;2.40;;;6.70;99.90;;;;;;5098921;28;20275;-67
2021/12/26 13:37:33;;;;;;;2.55;2.45;;;6.70;99.90;;;;;;5096735;28;20229;-67
2021/12/26 13:40:02;;;;;;;3.08;2.88;;;6.70;99.90;;;;;;5098744;28;20262;-68
2021/12/26 13:42:30;;;;;;;2.50;2.40;;;6.70;99.90;;;;;;5097655;28;20664;-67
2021/12/26 13:44:58;;;;;;;3.70;3.47;;;6.70;99.90;;;;;;5096275;28;20199;-67
2021/12/26 13:47:25;;;;;;;3.92;3.70;;;6.70;99.90;;;;;;5098321;28;20211;-68
2021/12/26 13:50:06;;;;;;;4.05;3.80;;;6.60;99.90;;;;;;5096436;28;20231;-68
2021/12/26 13:52:36;;;;;;;3.67;3.47;;;6.60;99.90;;;;;;5099448;28;20232;-66
2021/12/26 13:55:04;;;;;;;3.80;3.60;;;6.60;99.90;;;;;;5098742;28;20195;-68
2021/12/26 13:57:31;;;;;;;3.60;3.30;;;6.60;99.90;;;;;;5098679;28;20547;-68
2021/12/26 14:00:01;;;;;;;3.38;3.17;;;6.60;99.90;;;;;;5098595;28;20207;-66
2021/12/26 14:02:30;;;;;;;2.72;2.63;;;6.60;99.90;;;;;;5099416;28;20241;-67
2021/12/26 14:05:02;;;;;;;3.38;3.17;;;6.60;99.90;;;;;;5099062;28;20720;-67
2021/12/26 14:07:33;;;;;;;2.53;2.42;;;6.70;99.90;;;;;;5099252;28;20190;-67
2021/12/26 14:10:02;;;;;;;2.60;2.50;;;6.70;99.90;;;;;;5099908;28;20592;-67
2021/12/26 14:12:34;;;;;;;2.53;2.42;;;6.70;99.90;;;;;;5098205;28;20663;-69
2021/12/26 14:15:25;;;;;;;2.72;2.53;;;6.70;99.90;;;;;;5097965;28;20255;-68
2021/12/26 14:17:58;;;;;;;2.28;2.17;;;6.70;99.90;;;;;;5096641;28;20223;-67
2021/12/26 14:20:29;;;;;;;2.30;2.20;;;6.70;99.90;;;;;;5096084;28;20261;-66
2021/12/26 14:22:57;;;;;;;2.10;2.00;;;6.70;99.90;;;;;;5095592;28;20697;-67
2021/12/26 14:25:25;;;;;;;2.20;2.20;;;6.70;99.90;;;;;;5095954;28;20264;-66
2021/12/26 14:27:52;;;;;;;2.75;2.58;;;6.70;99.90;;;;;;5096200;28;20214;-66
2021/12/26 14:30:19;;;;;;;2.55;2.45;;;6.70;99.90;;;;;;5095932;28;20306;-67
2021/12/26 14:32:59;;;;;;;2.63;2.53;;;6.70;99.90;;;;;;5095882;28;20224;-67
2021/12/26 14:35:31;;;;;;;2.88;2.67;;;6.60;99.90;;;;;;5095680;28;20681;-67
2021/12/26 14:38:12;;;;;;;2.47;2.38;;;6.60;99.90;;;;;;5095400;28;20203;-66
2021/12/26 14:40:57;;;;;;;2.50;2.40;;;6.60;99.90;;;;;;5095491;28;20199;-65
2021/12/26 14:43:26;;;;;;;3.05;2.88;;;6.60;99.90;;;;;;5095066;28;20222;-66
2021/12/26 14:45:57;;;;;;;3.05;2.85;;;6.50;99.90;;;;;;5095014;28;20654;-67
2021/12/26 14:48:31;;;;;;;2.58;2.47;;;6.50;99.90;;;;;;5095306;28;20180;-67
2021/12/26 14:51:11;;;;;;;2.72;2.63;;;6.50;99.90;;;;;;5095046;28;20230;-68
2021/12/26 14:53:38;;;;;;;2.50;2.40;;;6.50;99.90;;;;;;5094581;28;20222;-66
2021/12/26 14:56:12;;;;;;;2.47;2.38;;;6.50;99.90;;;;;;5094178;28;20206;-66
2021/12/26 14:58:44;;;;;;;2.08;2.00;;;6.50;99.90;;;;;;5095301;28;20608;-66
2021/12/26 15:01:24;;;;;;;2.50;2.40;;;6.50;99.90;;;;;;5095795;28;20854;-67
2021/12/26 15:03:52;;;;;;;2.40;2.30;;;6.50;99.90;;;;;;5094381;28;20206;-66
2021/12/26 15:06:20;;;;;;;1.80;1.80;;;6.50;99.90;;;;;;5093810;28;20563;-65
2021/12/26 15:08:47;;;;;;;2.40;2.30;;;6.40;99.90;;;;;;5093981;28;20230;-65
2021/12/26 15:11:14;;;;;;;2.30;2.20;;;6.40;99.90;;;;;;5093875;28;20255;-66
2021/12/26 15:13:41;;;;;;;2.50;2.40;;;6.40;99.90;;;;;;5093830;28;20287;-65
2021/12/26 15:16:09;;;;;;;2.35;2.30;;;6.40;99.90;;;;;;5093753;28;20298;-65
2021/12/26 15:18:36;;;;;;;2.75;2.65;;;6.40;99.90;;;;;;5093910;28;20301;-66
2021/12/26 15:21:08;;;;;;;2.22;2.13;;;6.40;99.90;;;;;;5093560;28;20223;-66
2021/12/26 15:23:40;;;;;;;2.42;2.33;;;6.30;99.90;;;;;;5093839;28;20546;-66
2021/12/26 15:26:09;;;;;;;2.05;2.00;;;6.40;99.90;;;;;;5093691;28;20187;-66
2021/12/26 15:28:38;;;;;;;2.03;1.92;;;6.40;99.90;;;;;;5093609;28;20291;-65
2021/12/26 15:31:08;;;;;;;1.95;1.95;;;6.40;99.90;;;;;;5093293;28;20219;-65
2021/12/26 15:33:39;;;;;;;1.80;1.80;;;6.30;99.90;;;;;;5092941;28;20249;-66
2021/12/26 15:36:08;;;;;;;2.17;2.08;;;6.40;99.90;;;;;;5093765;28;20246;-67
2021/12/26 15:38:37;;;;;;;1.67;1.67;;;6.30;99.90;;;;;;5093770;28;20304;-66
2021/12/26 15:41:04;;;;;;;3.08;2.88;;;6.30;99.90;;;;;;5093290;28;20223;-66
2021/12/26 15:43:32;;;;;;;2.17;2.08;;;6.30;99.90;;;;;;5093288;28;20297;-67
2021/12/26 15:45:59;;;;;;;2.00;1.90;;;6.30;99.90;;;;;;5093749;28;20290;-67
2021/12/26 15:48:26;;;;;;;2.08;1.98;;;6.30;99.90;;;;;;5094250;28;20290;-68
2021/12/26 15:50:53;;;;;;;2.10;2.00;;;6.30;99.90;;;;;;5093694;28;20647;-68
2021/12/26 15:53:20;;;;;;;1.58;1.58;;;6.30;99.90;;;;;;5093851;28;20234;-68
2021/12/26 15:55:49;;;;;;;1.85;1.75;;;6.30;99.90;;;;;;5093175;28;20632;-68
2021/12/26 15:58:17;;;;;;;1.67;1.60;;;6.30;99.90;;;;;;5093571;28;20254;-67
2021/12/26 16:00:44;;;;;;;1.33;1.33;;;6.30;99.90;;;;;;5093591;28;20244;-67
2021/12/26 16:03:11;;;;;;;2.03;1.92;;;6.40;99.90;;;;;;5093270;28;20688;-67
2021/12/26 16:05:38;;;;;;;1.60;1.50;;;6.40;99.90;;;;;;5093676;28;20199;-67
2021/12/26 16:08:05;;;;;;;1.38;1.38;;;6.40;99.90;;;;;;5093859;28;20252;-68
2021/12/26 16:10:32;;;;;;;1.23;1.23;;;6.40;99.90;;;;;;5094336;28;20286;-67
2021/12/26 16:13:01;;;;;;;1.33;1.33;;;6.40;99.90;;;;;;5094368;28;20639;-67
2021/12/26 16:15:28;;;;;;;1.70;1.70;;;6.40;99.90;;;;;;5093865;28;20293;-67
2021/12/26 16:17:59;;;;;;;1.45;1.45;;;6.40;99.90;;;;;;5093402;28;20215;-66
2021/12/26 16:20:27;;;;;;;1.40;1.40;;;6.40;99.90;;;;;;5093794;28;20191;-68
2021/12/26 16:22:54;;;;;;;1.27;1.27;;;6.40;99.90;;;;;;5094229;28;20253;-68
2021/12/26 16:25:21;;;;;;;1.45;1.35;;;6.30;99.90;;;;;;5092965;28;20733;-68
2021/12/26 16:27:53;;;;;;;1.38;1.38;;;6.40;99.90;;;;;;5093270;28;20203;-68
2021/12/26 16:30:23;;;;;;;1.10;1.10;;;6.40;99.90;;;;;;5093982;28;20188;-67
2021/12/26 16:32:50;;;;;;;1.27;1.27;;;6.40;99.90;;;;;;5093376;28;20469;-67
2021/12/26 16:35:18;;;;;;;1.85;1.85;;;6.30;99.90;;;;;;5093128;28;20249;-68
2021/12/26 16:37:48;;;;;;;1.70;1.67;;;6.40;99.90;;;;;;5093601;28;20310;-68
2021/12/26 16:40:16;;;;;;;1.88;1.88;;;6.30;99.90;;;;;;5093201;28;20183;-70
2021/12/26 16:42:43;;;;;;;1.63;1.63;;;6.30;99.90;;;;;;5092973;28;20706;-68
2021/12/26 16:45:12;;;;;;;1.70;1.70;;;6.30;99.90;;;;;;5096846;28;20199;-68
2021/12/26 16:47:41;;;;;;;1.73;1.73;;;6.30;99.90;;;;;;5096609;28;20282;-68
2021/12/26 16:50:12;;;;;;;1.40;1.40;;;6.30;99.90;;;;;;5096574;28;20639;-68
2021/12/26 16:52:39;;;;;;;1.48;1.48;;;6.30;99.90;;;;;;5096499;28;20302;-67
2021/12/26 16:55:07;;;;;;;2.00;1.90;;;6.30;99.90;;;;;;5096207;28;20294;-69
2021/12/26 16:57:34;;;;;;;1.50;1.50;;;6.30;99.90;;;;;;5096307;28;20559;-68
2021/12/26 17:00:02;;;;;;;1.63;1.63;;;6.30;99.90;;;;;;5096126;28;20739;-68
2021/12/26 17:02:30;;;;;;;1.60;1.60;;;6.30;99.90;;;;;;5096305;28;20223;-68
2021/12/26 17:04:58;;;;;;;1.60;1.60;;;6.30;99.90;;;;;;5096308;28;20199;-69
2021/12/26 17:07:26;;;;;;;1.40;1.40;;;6.30;99.90;;;;;;5096301;28;20298;-69
2021/12/26 17:09:53;;;;;;;1.88;1.88;;;6.30;99.90;;;;;;5096306;28;20202;-69
2021/12/26 17:12:20;;;;;;;1.63;1.63;;;6.30;99.90;;;;;;5095966;28;20785;-68
2021/12/26 17:14:47;;;;;;;1.60;1.60;;;6.30;99.90;;;;;;5095827;28;20199;-67
2021/12/26 17:17:14;;;;;;;1.20;1.20;;;6.30;99.90;;;;;;5096187;28;20222;-67
2021/12/26 17:19:42;;;;;;;1.17;1.17;;;6.30;99.90;;;;;;5096754;28;20286;-67
2021/12/26 17:22:12;;;;;;;1.10;1.10;;;6.40;99.90;;;;;;5095915;28;20219;-67
2021/12/26 17:24:39;;;;;;;1.10;1.10;;;6.30;99.90;;;;;;5095681;28;20704;-67
2021/12/26 17:27:18;;;;;;;1.30;1.30;;;6.40;99.90;;;;;;5095561;28;20663;-67
2021/12/26 17:29:45;;;;;;;1.40;1.30;;;6.40;99.90;;;;;;5095869;28;20191;-67
2021/12/26 17:32:12;;;;;;;1.50;1.50;;;6.40;99.90;;;;;;5095655;28;20310;-66
2021/12/26 17:34:38;;;;;;;1.58;1.58;;;6.30;99.90;;;;;;5095624;28;20242;-66
2021/12/26 17:37:05;;;;;;;1.45;1.45;;;6.30;99.90;;;;;;5095252;28;20223;-66
2021/12/26 17:39:34;;;;;;;1.30;1.30;;;6.30;99.90;;;;;;5096512;28;20290;-67
2021/12/26 17:42:01;;;;;;;1.30;1.30;;;6.30;99.90;;;;;;5096248;28;20306;-67
2021/12/26 17:44:27;;;;;;;1.27;1.27;;;6.30;99.90;;;;;;5096790;28;20274;-67
2021/12/26 17:46:54;;;;;;;1.77;1.70;;;6.40;99.90;;;;;;5098669;28;20290;-67
2021/12/26 17:49:21;;;;;;;1.50;1.50;;;6.30;99.90;;;;;;5098458;28;20258;-67
2021/12/26 17:51:50;;;;;;;1.67;1.67;;;6.30;99.90;;;;;;5097550;28;20330;-67